Time;durP1;ratioP1;P1;durP2;ratioP2;P2;SDS_P1;SDS_P2;PMS_P1;PMS_P2;Temp;Humidity;BMP_temperature;BMP_pressure;BME280_temperature;BME280_humidity;BME280_pressure;Samples;Min_cycle;Max_cycle;Signal;HPM_P1;HPM_P2
2021/12/20 00:00:12;;;;;;;;;;;21.80;52.80;;;;;;4972834;28;19916;-75
2021/12/20 00:02:38;;;;;;;;;;;21.70;52.90;;;;;;4972784;28;20410;-74
2021/12/20 00:05:04;;;;;;;;;;;21.80;53.00;;;;;;4972330;28;19945;-75
2021/12/20 00:07:30;;;;;;;;;;;21.80;53.10;;;;;;4972775;28;19946;-75
2021/12/20 00:09:55;;;;;;;;;;;21.70;53.00;;;;;;4972664;28;19976;-75
2021/12/20 00:12:21;;;;;;;;;;;21.70;53.00;;;;;;4956657;28;19910;-75
2021/12/20 00:14:47;;;;;;;;;;;21.70;53.80;;;;;;4976468;28;20363;-75
2021/12/20 00:17:12;;;;;;;;;;;21.80;53.20;;;;;;4976443;28;20001;-75
2021/12/20 00:19:38;;;;;;;;;;;21.70;53.10;;;;;;4959415;28;19992;-75
2021/12/20 00:22:04;;;;;;;;;;;21.80;53.90;;;;;;4976287;28;20362;-76
2021/12/20 00:24:29;;;;;;;;;;;21.70;53.30;;;;;;4958820;28;19910;-75
2021/12/20 00:26:55;;;;;;;;;;;21.70;53.30;;;;;;4976144;28;20029;-75
2021/12/20 00:29:21;;;;;;;;;;;21.70;53.30;;;;;;4959019;28;19961;-75
2021/12/20 00:31:46;;;;;;;;;;;21.70;53.30;;;;;;4976652;28;19932;-75
2021/12/20 00:34:12;;;;;;;;;;;21.70;53.40;;;;;;4958746;28;19917;-74
2021/12/20 00:36:37;;;;;;;;;;;21.70;53.30;;;;;;4958571;28;20339;-75
2021/12/20 00:41:48;;;;;;;;;;;21.70;53.40;;;;;;4976092;28;20285;-75
2021/12/20 00:44:13;;;;;;;;;;;21.70;53.40;;;;;;4975805;28;20001;-75
2021/12/20 00:46:39;;;;;;;;;;;21.70;53.40;;;;;;4958950;28;20330;-74
2021/12/20 00:49:04;;;;;;;;;;;21.70;53.40;;;;;;4942655;28;20417;-74
2021/12/20 00:51:30;;;;;;;;;;;21.70;53.40;;;;;;4958559;28;19982;-75
2021/12/20 00:53:56;;;;;;;;;;;21.80;53.10;;;;;;4958512;28;19910;-76
2021/12/20 00:56:21;;;;;;;;;;;21.80;53.10;;;;;;4975718;28;19964;-75
2021/12/20 00:58:47;;;;;;;;;;;21.70;52.70;;;;;;4942547;28;19910;-75
2021/12/20 01:01:13;;;;;;;;;;;21.70;52.90;;;;;;4975745;28;20338;-75
2021/12/20 01:03:38;;;;;;;;;;;21.70;52.70;;;;;;4975608;28;20340;-75
2021/12/20 01:06:04;;;;;;;;;;;21.80;52.80;;;;;;4975249;28;19917;-75
2021/12/20 01:08:34;;;;;;;;;;;21.80;53.00;;;;;;4958235;28;19922;-75
2021/12/20 01:11:00;;;;;;;;;;;21.70;52.70;;;;;;4975615;28;19910;-75
2021/12/20 01:13:29;;;;;;;;;;;21.70;52.80;;;;;;4958163;28;19910;-75
2021/12/20 01:15:58;;;;;;;;;;;21.80;53.60;;;;;;4957938;28;19999;-75
2021/12/20 01:18:23;;;;;;;;;;;21.80;53.10;;;;;;4975290;28;19910;-75
2021/12/20 01:20:49;;;;;;;;;;;21.70;53.00;;;;;;4975248;28;19917;-75
2021/12/20 01:23:16;;;;;;;;;;;21.70;53.30;;;;;;4974547;28;20008;-75
2021/12/20 01:25:42;;;;;;;;;;;21.70;53.20;;;;;;4975058;28;19930;-75
2021/12/20 01:28:08;;;;;;;;;;;21.70;53.20;;;;;;4975099;28;19914;-75
2021/12/20 01:30:35;;;;;;;;;;;21.70;53.10;;;;;;4975335;28;19910;-75
2021/12/20 01:33:00;;;;;;;;;;;21.70;53.30;;;;;;4974844;28;20017;-75
2021/12/20 01:35:26;;;;;;;;;;;21.70;53.30;;;;;;4975327;28;20005;-74
2021/12/20 01:37:53;;;;;;;;;;;21.70;53.30;;;;;;4975093;28;20500;-75
2021/12/20 01:40:19;;;;;;;;;;;21.70;53.30;;;;;;4975059;28;20263;-74
2021/12/20 01:42:46;;;;;;;;;;;21.70;53.20;;;;;;4974901;28;19910;-75
2021/12/20 01:45:18;;;;;;;;;;;21.70;53.30;;;;;;4974579;28;20380;-75
2021/12/20 01:47:49;;;;;;;;;;;21.70;53.30;;;;;;4974779;28;19910;-75
2021/12/20 01:50:25;;;;;;;;;;;21.70;53.30;;;;;;4957673;28;20363;-75
2021/12/20 01:52:50;;;;;;;;;;;21.70;53.30;;;;;;4974802;28;19910;-74
2021/12/20 01:55:18;;;;;;;;;;;21.70;53.40;;;;;;4957265;28;20275;-75
2021/12/20 01:57:43;;;;;;;;;;;21.70;53.30;;;;;;4957502;28;19949;-75
2021/12/20 02:00:12;;;;;;;;;;;21.70;53.20;;;;;;4974670;28;19933;-74
2021/12/20 02:02:47;;;;;;;;;;;21.70;53.40;;;;;;4974515;28;19910;-75
2021/12/20 02:05:22;;;;;;;;;;;21.70;53.20;;;;;;4956872;28;20005;-75
2021/12/20 02:08:03;;;;;;;;;;;21.70;53.40;;;;;;4957174;28;19956;-75
2021/12/20 02:10:30;;;;;;;;;;;21.70;53.30;;;;;;4974369;28;19914;-75
2021/12/20 02:12:55;;;;;;;;;;;21.70;52.80;;;;;;4974392;28;19914;-75
2021/12/20 02:15:21;;;;;;;;;;;21.70;53.10;;;;;;4974026;28;19917;-75
2021/12/20 02:17:47;;;;;;;;;;;21.70;52.90;;;;;;4974518;28;19932;-74
2021/12/20 02:20:25;;;;;;;;;;;21.70;53.20;;;;;;4974314;28;19932;-75
2021/12/20 02:22:56;;;;;;;;;;;21.70;53.10;;;;;;4974060;28;19921;-74
2021/12/20 02:25:22;;;;;;;;;;;21.70;53.10;;;;;;4956575;28;20009;-75
2021/12/20 02:27:47;;;;;;;;;;;21.70;52.90;;;;;;4940840;28;19926;-75
2021/12/20 02:30:37;;;;;;;;;;;21.70;53.10;;;;;;4956867;28;20318;-75
2021/12/20 02:38:32;;;;;;;;;;;21.70;53.00;;;;;;4973932;28;19914;-75
2021/12/20 02:41:06;;;;;;;;;;;21.70;53.10;;;;;;4973908;28;19956;-74
2021/12/20 02:43:35;;;;;;;;;;;21.70;53.10;;;;;;4974103;28;19957;-75
2021/12/20 02:46:03;;;;;;;;;;;21.70;53.10;;;;;;4956186;28;19918;-75
2021/12/20 02:48:29;;;;;;;;;;;21.70;53.20;;;;;;4973853;28;19914;-74
2021/12/20 02:50:55;;;;;;;;;;;21.70;53.10;;;;;;4956612;28;19917;-75
2021/12/20 02:53:21;;;;;;;;;;;21.60;53.20;;;;;;4956421;28;19910;-75
2021/12/20 02:55:47;;;;;;;;;;;21.70;53.20;;;;;;4973468;28;20428;-75
2021/12/20 02:58:12;;;;;;;;;;;21.60;53.20;;;;;;4973513;28;20351;-75
2021/12/20 03:00:38;;;;;;;;;;;21.60;53.20;;;;;;4973515;28;19913;-75
2021/12/20 03:03:04;;;;;;;;;;;21.60;53.10;;;;;;4973442;28;19996;-75
2021/12/20 03:05:30;;;;;;;;;;;21.60;53.20;;;;;;4973110;28;19925;-75
2021/12/20 03:07:56;;;;;;;;;;;21.60;53.70;;;;;;4956161;28;19914;-75
2021/12/20 03:10:23;;;;;;;;;;;21.60;53.10;;;;;;4973336;28;19910;-75
2021/12/20 03:12:49;;;;;;;;;;;21.60;53.20;;;;;;4973221;28;19917;-75
2021/12/20 03:15:21;;;;;;;;;;;21.60;53.20;;;;;;4955772;28;19910;-74
2021/12/20 03:17:46;;;;;;;;;;;21.60;53.20;;;;;;4956429;28;19916;-75
2021/12/20 03:20:14;;;;;;;;;;;21.70;53.30;;;;;;4956104;28;20426;-75
2021/12/20 03:22:40;;;;;;;;;;;21.70;53.30;;;;;;4973166;28;19953;-75
2021/12/20 03:25:06;;;;;;;;;;;21.60;53.20;;;;;;4972850;28;20375;-75
2021/12/20 03:27:32;;;;;;;;;;;21.60;53.20;;;;;;4973068;28;20016;-74
2021/12/20 03:29:58;;;;;;;;;;;21.60;53.10;;;;;;4973451;28;19910;-75
2021/12/20 03:32:23;;;;;;;;;;;21.60;53.10;;;;;;4973153;28;19910;-75
2021/12/20 03:34:49;;;;;;;;;;;21.70;53.00;;;;;;4972745;28;19917;-75
2021/12/20 03:37:14;;;;;;;;;;;21.70;53.00;;;;;;4955899;28;19933;-74
2021/12/20 03:39:40;;;;;;;;;;;21.70;53.00;;;;;;4973472;28;19956;-75
2021/12/20 03:42:06;;;;;;;;;;;21.70;52.90;;;;;;4939897;28;20278;-75
2021/12/20 03:44:34;;;;;;;;;;;21.70;53.00;;;;;;4972605;28;19910;-75
2021/12/20 03:47:00;;;;;;;;;;;21.70;52.90;;;;;;4972616;28;19918;-75
2021/12/20 03:49:26;;;;;;;;;;;21.70;52.90;;;;;;4972894;28;19918;-75
2021/12/20 03:51:51;;;;;;;;;;;21.70;53.00;;;;;;4955500;28;19910;-75
2021/12/20 03:54:17;;;;;;;;;;;21.60;53.00;;;;;;4955389;28;19996;-75
2021/12/20 03:56:42;;;;;;;;;;;21.60;53.00;;;;;;4955712;28;20001;-75
2021/12/20 03:59:08;;;;;;;;;;;21.70;52.90;;;;;;4972664;28;20302;-75
2021/12/20 04:01:34;;;;;;;;;;;21.60;53.00;;;;;;4972953;28;19917;-75
2021/12/20 04:04:01;;;;;;;;;;;21.60;53.10;;;;;;4972591;28;20357;-75
2021/12/20 04:06:27;;;;;;;;;;;21.60;53.00;;;;;;4972565;28;20374;-75
2021/12/20 04:08:53;;;;;;;;;;;21.60;53.00;;;;;;4972554;28;20370;-75
2021/12/20 04:11:19;;;;;;;;;;;21.60;53.00;;;;;;4955539;28;19956;-75
2021/12/20 04:13:45;;;;;;;;;;;21.60;53.10;;;;;;4955364;28;19976;-75
2021/12/20 04:16:11;;;;;;;;;;;21.60;53.10;;;;;;4972481;28;19916;-75
2021/12/20 04:18:36;;;;;;;;;;;21.60;53.00;;;;;;4955524;28;20283;-75
2021/12/20 04:21:02;;;;;;;;;;;21.60;53.10;;;;;;4955197;28;19913;-75
2021/12/20 04:23:28;;;;;;;;;;;21.60;53.00;;;;;;4955036;28;19921;-75
2021/12/20 04:25:54;;;;;;;;;;;21.60;53.00;;;;;;4955003;28;19914;-75
2021/12/20 04:28:19;;;;;;;;;;;21.60;53.00;;;;;;4972585;28;20318;-75
2021/12/20 04:30:45;;;;;;;;;;;21.60;53.10;;;;;;4972456;28;19960;-75
2021/12/20 04:33:11;;;;;;;;;;;21.60;53.00;;;;;;4972726;28;19961;-75
2021/12/20 04:35:36;;;;;;;;;;;21.60;53.10;;;;;;4972159;28;19910;-75
2021/12/20 04:38:03;;;;;;;;;;;21.60;53.10;;;;;;4972577;28;19996;-75
2021/12/20 04:40:28;;;;;;;;;;;21.60;53.00;;;;;;4972322;28;19943;-75
2021/12/20 04:42:56;;;;;;;;;;;21.60;53.00;;;;;;4972153;28;19910;-75
2021/12/20 04:45:22;;;;;;;;;;;21.60;53.60;;;;;;4971996;28;19957;-75
2021/12/20 04:47:48;;;;;;;;;;;21.60;52.90;;;;;;4955112;28;19910;-75
2021/12/20 04:50:14;;;;;;;;;;;21.60;53.00;;;;;;4972147;28;20338;-75
2021/12/20 04:52:41;;;;;;;;;;;21.60;52.90;;;;;;4954988;28;20014;-75
2021/12/20 04:55:07;;;;;;;;;;;21.60;52.90;;;;;;4971889;28;19910;-75
2021/12/20 04:57:33;;;;;;;;;;;21.60;53.00;;;;;;4972473;28;20001;-75
2021/12/20 04:59:59;;;;;;;;;;;21.60;52.80;;;;;;4958481;28;20009;-75
2021/12/20 05:02:25;;;;;;;;;;;21.60;52.70;;;;;;4975664;28;20367;-75
2021/12/20 05:04:51;;;;;;;;;;;21.60;52.80;;;;;;4957825;28;19910;-75
2021/12/20 05:07:17;;;;;;;;;;;21.60;52.80;;;;;;4975579;28;20008;-75
2021/12/20 05:09:43;;;;;;;;;;;21.60;52.80;;;;;;4958234;28;19909;-75
2021/12/20 05:12:13;;;;;;;;;;;21.60;52.70;;;;;;4975401;28;20302;-75
2021/12/20 05:14:40;;;;;;;;;;;21.60;52.80;;;;;;4958150;28;19914;-75
2021/12/20 05:17:06;;;;;;;;;;;21.60;52.90;;;;;;4975582;28;20401;-75
2021/12/20 05:19:32;;;;;;;;;;;21.60;52.90;;;;;;4942255;28;19910;-75
2021/12/20 05:21:58;;;;;;;;;;;21.60;52.70;;;;;;4957995;28;19946;-75
2021/12/20 05:24:24;;;;;;;;;;;21.60;52.90;;;;;;4957756;28;19914;-75
2021/12/20 05:26:49;;;;;;;;;;;21.60;52.80;;;;;;4975211;28;20013;-75
2021/12/20 05:29:15;;;;;;;;;;;21.60;53.00;;;;;;4958507;28;19917;-75
2021/12/20 05:31:41;;;;;;;;;;;21.60;53.00;;;;;;4975141;28;19977;-76
2021/12/20 05:34:06;;;;;;;;;;;21.50;52.80;;;;;;4975339;28;19917;-75
2021/12/20 05:36:32;;;;;;;;;;;21.50;52.80;;;;;;4975034;28;20300;-75
2021/12/20 05:38:57;;;;;;;;;;;21.50;52.90;;;;;;4975029;28;19918;-74
2021/12/20 05:41:23;;;;;;;;;;;21.60;53.00;;;;;;4975067;28;19910;-75
2021/12/20 05:43:49;;;;;;;;;;;21.60;53.00;;;;;;4974923;28;20358;-74
2021/12/20 05:46:15;;;;;;;;;;;21.60;52.90;;;;;;4957203;28;19914;-75
2021/12/20 05:48:41;;;;;;;;;;;21.50;53.00;;;;;;4974977;28;20008;-75
2021/12/20 05:51:07;;;;;;;;;;;21.50;53.00;;;;;;4974914;28;20438;-75
2021/12/20 05:53:32;;;;;;;;;;;21.50;53.00;;;;;;4957773;28;19910;-75
2021/12/20 05:55:58;;;;;;;;;;;21.60;53.00;;;;;;4957228;28;20330;-75
2021/12/20 05:58:23;;;;;;;;;;;21.60;53.00;;;;;;4941475;28;20370;-75
2021/12/20 06:00:49;;;;;;;;;;;21.60;52.80;;;;;;4974654;28;19949;-75
2021/12/20 06:03:15;;;;;;;;;;;21.50;52.90;;;;;;4974760;28;19910;-75
2021/12/20 06:05:42;;;;;;;;;;;21.60;52.90;;;;;;4974114;28;19920;-75
2021/12/20 06:08:10;;;;;;;;;;;21.60;52.90;;;;;;4974542;28;19910;-75
2021/12/20 06:10:37;;;;;;;;;;;21.60;52.70;;;;;;4956961;28;20312;-75
2021/12/20 06:13:03;;;;;;;;;;;21.60;52.80;;;;;;4974530;28;19910;-75
2021/12/20 06:15:29;;;;;;;;;;;21.60;52.80;;;;;;4974133;28;19937;-75
2021/12/20 06:17:55;;;;;;;;;;;21.60;52.80;;;;;;4974803;28;20004;-75
2021/12/20 06:20:20;;;;;;;;;;;21.60;52.70;;;;;;4956978;28;19911;-75
2021/12/20 06:22:46;;;;;;;;;;;21.60;52.70;;;;;;4974224;28;19969;-75
2021/12/20 06:25:12;;;;;;;;;;;21.60;52.70;;;;;;4973911;28;19988;-75
2021/12/20 06:27:38;;;;;;;;;;;21.60;52.70;;;;;;4974131;28;19921;-75
2021/12/20 06:30:08;;;;;;;;;;;21.60;52.60;;;;;;4974269;28;19910;-74
2021/12/20 06:32:35;;;;;;;;;;;21.50;52.70;;;;;;4940895;28;19937;-75
2021/12/20 06:35:00;;;;;;;;;;;21.60;52.80;;;;;;4956396;28;19918;-76
2021/12/20 06:37:26;;;;;;;;;;;21.50;52.70;;;;;;4956764;28;19910;-75
2021/12/20 06:39:51;;;;;;;;;;;21.60;52.70;;;;;;4956817;28;19952;-75
2021/12/20 06:42:17;;;;;;;;;;;21.60;52.80;;;;;;4940800;28;20439;-74
2021/12/20 06:44:43;;;;;;;;;;;21.50;52.70;;;;;;4973576;28;19910;-75
2021/12/20 06:47:08;;;;;;;;;;;21.50;52.60;;;;;;4973993;28;20359;-75
2021/12/20 06:49:34;;;;;;;;;;;21.60;52.80;;;;;;4973681;28;20299;-75
2021/12/20 06:52:02;;;;;;;;;;;21.50;52.80;;;;;;4973670;28;19921;-75
2021/12/20 06:54:28;;;;;;;;;;;21.60;52.80;;;;;;4973362;28;20328;-74
2021/12/20 06:56:53;;;;;;;;;;;21.50;52.70;;;;;;4973598;28;19917;-75
2021/12/20 06:59:19;;;;;;;;;;;21.50;52.70;;;;;;4956471;28;19910;-74
2021/12/20 07:01:45;;;;;;;;;;;21.50;52.70;;;;;;4973553;28;19916;-75
2021/12/20 07:04:12;;;;;;;;;;;21.50;52.80;;;;;;4973354;28;19909;-75
2021/12/20 07:06:38;;;;;;;;;;;21.50;52.80;;;;;;4956459;28;19913;-75
2021/12/20 07:09:06;;;;;;;;;;;21.60;52.80;;;;;;4973275;28;20031;-74
2021/12/20 07:11:32;;;;;;;;;;;21.50;52.70;;;;;;4973508;28;19914;-75
2021/12/20 07:13:57;;;;;;;;;;;21.50;52.70;;;;;;4973442;28;19910;-74
2021/12/20 07:16:23;;;;;;;;;;;21.50;52.70;;;;;;4956130;28;19957;-75
2021/12/20 07:18:49;;;;;;;;;;;21.50;52.60;;;;;;4956166;28;20000;-75
2021/12/20 07:21:15;;;;;;;;;;;21.60;52.70;;;;;;4972740;28;19913;-75
2021/12/20 07:23:41;;;;;;;;;;;21.60;52.80;;;;;;4940035;28;19960;-75
2021/12/20 07:26:09;;;;;;;;;;;21.50;52.70;;;;;;4955601;28;19954;-75
2021/12/20 07:28:35;;;;;;;;;;;21.60;52.70;;;;;;4973390;28;19910;-75
2021/12/20 07:31:00;;;;;;;;;;;21.50;52.60;;;;;;4973400;28;20345;-75
2021/12/20 07:33:26;;;;;;;;;;;21.50;52.60;;;;;;4973689;28;19933;-75
2021/12/20 07:35:52;;;;;;;;;;;21.60;52.70;;;;;;4955702;28;20346;-75
2021/12/20 07:38:18;;;;;;;;;;;21.60;52.70;;;;;;4956234;28;20375;-75
2021/12/20 07:40:44;;;;;;;;;;;21.60;53.20;;;;;;4974257;28;20088;-74
2021/12/20 07:43:11;;;;;;;;;;;21.60;52.60;;;;;;4956545;28;19916;-75
2021/12/20 07:45:37;;;;;;;;;;;21.60;52.60;;;;;;4958785;28;19910;-75
2021/12/20 07:48:03;;;;;;;;;;;21.50;52.50;;;;;;4976262;28;19910;-75
2021/12/20 07:50:30;;;;;;;;;;;21.60;52.80;;;;;;4979593;28;20442;-74
2021/12/20 07:52:55;;;;;;;;;;;21.60;52.60;;;;;;4962107;28;19910;-75
2021/12/20 07:55:21;;;;;;;;;;;21.60;52.60;;;;;;4978687;28;20369;-75
2021/12/20 07:57:47;;;;;;;;;;;21.60;53.10;;;;;;4962094;28;19910;-74
2021/12/20 08:00:13;;;;;;;;;;;21.50;52.60;;;;;;4974487;28;19910;-74
2021/12/20 08:02:39;;;;;;;;;;;21.50;52.60;;;;;;4972994;28;20001;-75
2021/12/20 08:05:05;;;;;;;;;;;21.60;52.60;;;;;;4972551;28;19933;-75
2021/12/20 08:07:31;;;;;;;;;;;21.50;52.60;;;;;;4955439;28;19922;-75
2021/12/20 08:09:56;;;;;;;;;;;21.50;52.60;;;;;;4972785;28;19917;-75
2021/12/20 08:12:22;;;;;;;;;;;21.50;52.60;;;;;;4955366;28;19910;-75
2021/12/20 08:14:48;;;;;;;;;;;21.50;52.60;;;;;;4955371;28;20318;-75
2021/12/20 08:17:13;;;;;;;;;;;21.50;52.60;;;;;;4972643;28;19945;-75
2021/12/20 08:19:39;;;;;;;;;;;21.50;52.60;;;;;;4955760;28;20225;-75
2021/12/20 08:22:05;;;;;;;;;;;21.50;52.60;;;;;;4972410;28;19910;-75
2021/12/20 08:24:31;;;;;;;;;;;21.50;52.60;;;;;;4955200;28;20339;-75
2021/12/20 08:26:57;;;;;;;;;;;21.50;52.60;;;;;;4955235;28;20346;-75
2021/12/20 08:29:23;;;;;;;;;;;21.50;52.60;;;;;;4939648;28;20001;-75
2021/12/20 08:31:50;;;;;;;;;;;21.50;52.60;;;;;;4972685;28;19917;-75
2021/12/20 08:34:15;;;;;;;;;;;21.50;52.60;;;;;;4974819;28;19949;-75
2021/12/20 08:36:41;;;;;;;;;;;21.50;52.60;;;;;;4976540;28;19953;-75
2021/12/20 08:39:06;;;;;;;;;;;21.50;52.60;;;;;;4976193;28;19933;-75
2021/12/20 08:41:32;;;;;;;;;;;21.50;52.60;;;;;;4943195;28;19921;-75
2021/12/20 08:43:58;;;;;;;;;;;21.50;52.50;;;;;;4958917;28;20630;-75
2021/12/20 08:46:23;;;;;;;;;;;21.50;52.60;;;;;;4942509;28;19913;-74
2021/12/20 08:48:51;;;;;;;;;;;21.50;52.60;;;;;;4975955;28;19949;-75
2021/12/20 08:51:17;;;;;;;;;;;21.50;52.50;;;;;;4976034;28;19936;-75
2021/12/20 08:53:43;;;;;;;;;;;21.50;52.50;;;;;;4958557;28;20012;-74
2021/12/20 08:56:08;;;;;;;;;;;21.50;52.50;;;;;;4958209;28;19914;-74
2021/12/20 08:58:34;;;;;;;;;;;21.60;52.50;;;;;;4975930;28;19910;-74
2021/12/20 09:01:00;;;;;;;;;;;21.60;52.40;;;;;;4976198;28;19921;-74
2021/12/20 09:03:27;;;;;;;;;;;21.60;52.90;;;;;;4958541;28;19918;-74
2021/12/20 09:05:53;;;;;;;;;;;21.60;53.00;;;;;;4975929;28;19914;-75
2021/12/20 09:08:21;;;;;;;;;;;21.50;52.30;;;;;;4958652;28;19910;-74
2021/12/20 09:10:47;;;;;;;;;;;21.60;52.40;;;;;;4958548;28;19910;-75
2021/12/20 09:13:13;;;;;;;;;;;21.60;52.30;;;;;;4975476;28;20006;-74
2021/12/20 09:15:39;;;;;;;;;;;21.60;52.30;;;;;;4975372;28;20004;-75
2021/12/20 09:18:05;;;;;;;;;;;21.60;52.20;;;;;;4975416;28;19953;-74
2021/12/20 09:20:31;;;;;;;;;;;21.60;52.20;;;;;;4975598;28;19910;-75
2021/12/20 09:23:04;;;;;;;;;;;21.60;52.30;;;;;;4975354;28;19920;-75
2021/12/20 09:25:30;;;;;;;;;;;21.60;52.30;;;;;;4975009;28;20397;-75
2021/12/20 09:27:56;;;;;;;;;;;21.60;52.40;;;;;;4958279;28;19910;-75
2021/12/20 09:30:23;;;;;;;;;;;21.60;52.40;;;;;;4957869;28;19939;-75
2021/12/20 09:32:49;;;;;;;;;;;21.60;52.50;;;;;;4975231;28;20303;-75
2021/12/20 09:35:15;;;;;;;;;;;21.50;52.40;;;;;;4957642;28;19910;-75
2021/12/20 09:37:40;;;;;;;;;;;21.50;52.50;;;;;;4975297;28;19968;-74
2021/12/20 09:40:07;;;;;;;;;;;21.50;52.60;;;;;;4975240;28;19956;-75
2021/12/20 09:42:33;;;;;;;;;;;21.60;52.60;;;;;;4974998;28;20242;-74
2021/12/20 09:45:00;;;;;;;;;;;21.50;52.40;;;;;;4974263;28;19914;-75
2021/12/20 09:47:33;;;;;;;;;;;21.60;52.50;;;;;;4974874;28;19967;-75
2021/12/20 09:50:00;;;;;;;;;;;21.60;52.40;;;;;;4975065;28;19914;-75
2021/12/20 09:52:26;;;;;;;;;;;21.70;52.30;;;;;;4957553;28;19995;-74
2021/12/20 09:54:51;;;;;;;;;;;21.60;52.40;;;;;;4974652;28;20375;-75
2021/12/20 09:57:19;;;;;;;;;;;21.60;52.30;;;;;;4974582;28;19910;-75
2021/12/20 09:59:45;;;;;;;;;;;21.60;52.40;;;;;;4975003;28;20198;-75
2021/12/20 10:02:11;;;;;;;;;;;21.60;52.40;;;;;;4957401;28;19910;-75
2021/12/20 10:04:36;;;;;;;;;;;21.60;52.40;;;;;;4957313;28;19910;-75
2021/12/20 10:07:03;;;;;;;;;;;21.60;52.40;;;;;;4957509;28;19921;-75
2021/12/20 10:09:34;;;;;;;;;;;21.70;52.50;;;;;;4974650;28;19925;-75
2021/12/20 10:12:32;;;;;;;;;;;21.70;52.30;;;;;;4974409;28;19914;-75
2021/12/20 10:15:05;;;;;;;;;;;21.70;52.40;;;;;;4935609;28;19910;-75
2021/12/20 10:17:31;;;;;;;;;;;21.70;52.30;;;;;;4941154;28;19913;-75
2021/12/20 10:20:14;;;;;;;;;;;21.70;52.30;;;;;;4974502;28;20274;-75
2021/12/20 10:22:40;;;;;;;;;;;21.70;52.30;;;;;;4956918;28;20430;-75
2021/12/20 10:25:20;;;;;;;;;;;21.70;52.20;;;;;;4957075;28;19910;-75
2021/12/20 10:27:45;;;;;;;;;;;21.70;52.10;;;;;;4956996;28;19914;-75
2021/12/20 10:30:26;;;;;;;;;;;21.70;52.30;;;;;;4956937;28;20256;-75
2021/12/20 10:32:52;;;;;;;;;;;21.60;52.40;;;;;;4973841;28;19945;-75
2021/12/20 10:35:34;;;;;;;;;;;21.60;52.20;;;;;;4973752;28;19910;-75
2021/12/20 10:38:02;;;;;;;;;;;21.60;52.40;;;;;;4974007;28;19920;-75
2021/12/20 10:40:28;;;;;;;;;;;21.60;52.50;;;;;;4973999;28;19910;-75
2021/12/20 10:42:56;;;;;;;;;;;21.60;52.60;;;;;;4956949;28;19960;-75
2021/12/20 10:45:21;;;;;;;;;;;21.60;52.70;;;;;;4973658;28;19965;-75
2021/12/20 10:47:48;;;;;;;;;;;21.50;52.60;;;;;;4973722;28;19918;-75
2021/12/20 10:50:22;;;;;;;;;;;21.50;52.80;;;;;;4940515;28;19941;-75
2021/12/20 10:52:48;;;;;;;;;;;21.60;52.70;;;;;;4955844;28;19917;-74
2021/12/20 10:55:33;;;;;;;;;;;21.60;52.10;;;;;;4941695;28;20481;-74
2021/12/20 10:58:15;;;;;;;;;;;21.50;52.30;;;;;;4953223;28;19918;-74
2021/12/20 11:00:41;;;;;;;;;;;21.50;52.30;;;;;;4951117;28;19910;-72
2021/12/20 11:05:58;;;;;;;;;;;21.60;52.40;;;;;;4920537;29;19969;-75
2021/12/20 11:11:10;;;;;;;;;;;21.60;52.50;;;;;;4965617;28;19913;-74
2021/12/20 11:13:37;;;;;;;;;;;21.60;52.70;;;;;;4973630;28;19914;-74
2021/12/20 11:16:21;;;;;;;;;;;21.60;52.60;;;;;;4972940;28;20004;-75
2021/12/20 11:18:47;;;;;;;;;;;21.60;52.60;;;;;;4955934;28;19914;-75
2021/12/20 11:21:13;;;;;;;;;;;21.60;52.50;;;;;;4956064;28;20335;-74
2021/12/20 11:23:38;;;;;;;;;;;21.70;52.70;;;;;;4956471;28;19925;-74
2021/12/20 11:26:04;;;;;;;;;;;21.70;52.60;;;;;;4936503;29;20349;-74
2021/12/20 11:28:30;;;;;;;;;;;21.70;52.60;;;;;;4936454;29;19910;-74
2021/12/20 11:30:55;;;;;;;;;;;21.70;52.60;;;;;;4953614;28;20287;-75
2021/12/20 11:33:21;;;;;;;;;;;21.70;52.50;;;;;;4953681;28;19952;-75
2021/12/20 11:35:47;;;;;;;;;;;21.70;52.40;;;;;;4936496;29;19957;-75
2021/12/20 11:38:12;;;;;;;;;;;21.70;52.60;;;;;;4953731;29;20478;-75
2021/12/20 11:40:38;;;;;;;;;;;21.70;52.60;;;;;;4920799;29;19998;-73
2021/12/20 11:43:04;;;;;;;;;;;21.80;52.90;;;;;;4936662;29;19933;-74
2021/12/20 11:45:30;;;;;;;;;;;21.80;53.00;;;;;;4936342;29;20604;-74
2021/12/20 11:48:05;;;;;;;;;;;21.70;52.40;;;;;;4940186;28;19914;-74
2021/12/20 11:50:38;;;;;;;;;;;21.70;52.60;;;;;;4939499;28;20001;-74
2021/12/20 11:53:06;;;;;;;;;;;21.70;51.80;;;;;;4955467;28;19917;-74
2021/12/20 11:55:31;;;;;;;;;;;21.70;51.50;;;;;;4972441;28;20432;-74
2021/12/20 11:58:05;;;;;;;;;;;21.60;50.90;;;;;;4972870;28;19910;-74
2021/12/20 12:00:30;;;;;;;;;;;21.60;51.60;;;;;;4934317;29;19938;-75
2021/12/20 12:02:56;;;;;;;;;;;21.60;51.50;;;;;;4934537;29;20002;-75
2021/12/20 12:05:37;;;;;;;;;;;21.50;51.00;;;;;;4934131;29;20001;-75
2021/12/20 12:08:21;;;;;;;;;;;21.50;51.00;;;;;;4919847;29;19915;-75
2021/12/20 12:10:47;;;;;;;;;;;21.60;51.00;;;;;;4952902;28;19965;-75
2021/12/20 12:13:16;;;;;;;;;;;21.50;51.30;;;;;;4940230;29;20327;-75
2021/12/20 12:16:03;;;;;;;;;;;21.60;51.60;;;;;;4939996;29;19921;-75
2021/12/20 12:18:46;;;;;;;;;;;21.60;51.40;;;;;;4940560;29;20046;-76
2021/12/20 12:21:30;;;;;;;;;;;21.50;51.70;;;;;;4940219;29;19910;-74
2021/12/20 12:23:56;;;;;;;;;;;21.50;51.70;;;;;;4957097;28;19918;-75
2021/12/20 12:26:49;;;;;;;;;;;21.50;51.60;;;;;;4956884;28;19960;-75
2021/12/20 12:29:25;;;;;;;;;;;21.50;52.00;;;;;;4938201;29;19916;-76
2021/12/20 12:31:53;;;;;;;;;;;21.50;52.10;;;;;;4939802;29;19915;-75
2021/12/20 12:34:20;;;;;;;;;;;21.50;52.30;;;;;;4923946;29;19914;-75
2021/12/20 12:36:46;;;;;;;;;;;21.50;52.40;;;;;;4939871;29;19917;-76
2021/12/20 12:39:25;;;;;;;;;;;21.50;52.40;;;;;;4939703;29;19910;-75
2021/12/20 12:41:55;;;;;;;;;;;21.50;53.00;;;;;;4940310;29;19961;-75
2021/12/20 12:44:22;;;;;;;;;;;21.50;52.60;;;;;;4956502;29;20359;-75
2021/12/20 12:46:53;;;;;;;;;;;21.50;52.50;;;;;;4956733;29;19914;-76
2021/12/20 12:49:22;;;;;;;;;;;21.60;52.60;;;;;;4939774;29;19914;-75
2021/12/20 12:51:48;;;;;;;;;;;21.70;53.10;;;;;;4956830;28;19965;-76
2021/12/20 12:54:32;;;;;;;;;;;21.70;53.30;;;;;;4939578;29;19918;-75
2021/12/20 12:57:24;;;;;;;;;;;21.70;53.20;;;;;;4956365;28;19911;-75
2021/12/20 12:59:50;;;;;;;;;;;21.70;52.50;;;;;;4939281;29;19997;-75
2021/12/20 13:02:23;;;;;;;;;;;21.70;52.60;;;;;;4939606;29;19993;-75
2021/12/20 13:04:49;;;;;;;;;;;21.70;52.80;;;;;;4955981;28;19921;-74
2021/12/20 13:07:16;;;;;;;;;;;21.60;52.70;;;;;;4939078;29;19915;-74
2021/12/20 13:09:46;;;;;;;;;;;21.60;52.70;;;;;;4923088;29;20359;-75
2021/12/20 13:12:17;;;;;;;;;;;21.60;52.90;;;;;;4939327;29;20351;-75
2021/12/20 13:14:52;;;;;;;;;;;21.60;52.90;;;;;;4955825;29;19911;-75
2021/12/20 13:17:28;;;;;;;;;;;21.60;53.10;;;;;;4939270;29;20351;-75
2021/12/20 13:20:07;;;;;;;;;;;21.60;53.10;;;;;;4937964;29;19917;-75
2021/12/20 13:22:32;;;;;;;;;;;21.60;53.20;;;;;;4938783;29;19911;-75
2021/12/20 13:24:58;;;;;;;;;;;21.60;53.30;;;;;;4938539;29;20291;-75
2021/12/20 13:27:31;;;;;;;;;;;21.50;53.30;;;;;;4956071;29;19914;-75
2021/12/20 13:29:57;;;;;;;;;;;21.50;53.30;;;;;;4938790;29;19910;-75
2021/12/20 13:32:22;;;;;;;;;;;21.50;53.50;;;;;;4955956;28;20264;-76
2021/12/20 13:34:48;;;;;;;;;;;21.50;53.50;;;;;;4955529;29;19918;-76
2021/12/20 13:37:14;;;;;;;;;;;21.60;53.60;;;;;;4955909;29;19918;-75
2021/12/20 13:39:51;;;;;;;;;;;21.50;53.50;;;;;;4938708;29;19910;-76
2021/12/20 13:42:16;;;;;;;;;;;21.50;53.70;;;;;;4938645;29;19911;-76
2021/12/20 13:44:42;;;;;;;;;;;21.50;53.60;;;;;;4955460;29;19914;-77
2021/12/20 13:47:16;;;;;;;;;;;21.50;53.60;;;;;;4948908;29;19942;-76
2021/12/20 13:49:42;;;;;;;;;;;21.50;53.70;;;;;;4904078;29;19910;-75
2021/12/20 13:52:10;;;;;;;;;;;21.60;53.70;;;;;;4936553;29;19917;-75
2021/12/20 13:54:43;;;;;;;;;;;21.50;53.70;;;;;;4918991;29;20246;-75
2021/12/20 13:57:11;;;;;;;;;;;21.60;53.90;;;;;;4936260;29;19915;-75
2021/12/20 13:59:49;;;;;;;;;;;21.50;53.80;;;;;;4919360;29;20010;-75
2021/12/20 14:02:16;;;;;;;;;;;21.50;53.80;;;;;;4926870;28;19910;-76
2021/12/20 14:04:43;;;;;;;;;;;21.50;53.60;;;;;;4940668;28;19910;-75
2021/12/20 14:07:27;;;;;;;;;;;21.60;53.40;;;;;;4938562;29;19918;-75
2021/12/20 14:09:59;;;;;;;;;;;21.60;53.50;;;;;;4965772;28;20307;-74
2021/12/20 14:12:32;;;;;;;;;;;21.60;53.70;;;;;;4951662;28;19910;-74
2021/12/20 14:14:59;;;;;;;;;;;21.60;53.70;;;;;;4954494;28;19910;-73
2021/12/20 14:17:26;;;;;;;;;;;21.50;53.80;;;;;;4937889;28;19969;-73
2021/12/20 14:19:58;;;;;;;;;;;21.60;53.80;;;;;;4969739;28;19917;-73
2021/12/20 14:22:25;;;;;;;;;;;21.60;53.80;;;;;;4940988;28;19914;-75
2021/12/20 14:25:01;;;;;;;;;;;21.60;53.80;;;;;;4941701;28;19918;-75
2021/12/20 14:27:26;;;;;;;;;;;21.60;53.90;;;;;;4941311;28;19914;-75
2021/12/20 14:29:52;;;;;;;;;;;21.60;53.80;;;;;;4960567;28;20064;-75
2021/12/20 14:32:41;;;;;;;;;;;21.60;53.70;;;;;;4961036;28;19917;-75